This is the latest recevied weather packets stored in our database for station/object K8RRT. If no packets are shown the sender has not sent any weather packets the latest 10 day(s).
| Time | Temp. | Humidity | Pressure | Rain* | Wind** | Luminosity | Snow |
|---|---|---|---|---|---|---|---|
| 1777492123 | 17.78° C | 97% | 1003.2 hPa | 41.4 mm | - | 111 W/m² | - |
| 1777491820 | 17.78° C | 95% | 1003.2 hPa | 28.7 mm | - | 45 W/m² | - |
| 1777491516 | 20.56° C | 89% | 1002.9 hPa | 0 mm | - | 35 W/m² | - |
| 1777491214 | 20.56° C | 88% | 1002.8 hPa | 0 mm | - | 53 W/m² | - |
| 1777490910 | 20.56° C | 88% | 1002.6 hPa | 0 mm | - | 99 W/m² | - |
| 1777490606 | 20.56° C | 87% | 1002.6 hPa | 0 mm | - | 106 W/m² | - |
| 1777490302 | 21.67° C | 86% | 1002.3 hPa | 0 mm | - | 133 W/m² | - |
| 1777490000 | 21.11° C | 86% | 1002.5 hPa | 0 mm | - | 1034 W/m² | - |
| 1777489698 | 21.11° C | 87% | 1002.5 hPa | 0 mm | - | 854 W/m² | - |
| 1777489394 | 21.11° C | 90% | 1002.3 hPa | 0 mm | - | 374 W/m² | - |
| 1777489091 | 21.11° C | 90% | 1002.6 hPa | 0 mm | - | 383 W/m² | - |
| 1777488788 | 20.56° C | 92% | 1002.8 hPa | 0 mm | - | 539 W/m² | - |
| 1777488486 | 20° C | 92% | 1002.8 hPa | 0 mm | - | 689 W/m² | - |
| 1777488183 | 20° C | 93% | 1003.1 hPa | 0 mm | - | 348 W/m² | - |
| 1777487881 | 20° C | 93% | 1003.1 hPa | 0 mm | - | 301 W/m² | - |
| 1777487579 | 20° C | 94% | 1003 hPa | 0 mm | - | 164 W/m² | - |
| 1777487275 | 19.44° C | 95% | 1003.2 hPa | 0 mm | - | 364 W/m² | - |
| 1777486972 | 19.44° C | 95% | 1003.2 hPa | 0 mm | - | 485 W/m² | - |
| 1777486669 | 18.89° C | 98% | 1003.2 hPa | 0 mm | - | 605 W/m² | - |
| 1777486367 | 18.89° C | 98% | 1003.1 hPa | 0 mm | - | 962 W/m² | - |
| 1777486064 | 18.33° C | 99% | 1003.3 hPa | 0 mm | - | 716 W/m² | - |
| 1777485760 | 17.78° C | 99% | 1003.7 hPa | 0 mm | - | 197 W/m² | - |
| 1777485455 | 18.33° C | 99% | 1003.8 hPa | 0 mm | - | 244 W/m² | - |
| 1777485152 | 18.33° C | 99% | 1003.9 hPa | 0 mm | - | 354 W/m² | - |
| 1777484848 | 17.78° C | 99% | 1003.8 hPa | 0 mm | - | 1055 W/m² | - |
* Rain latest hour (hover to see other rain measurements)
** Current wind speed in m/s (hover to see current wind gust speed)